createdAt,value
2023-04-15T00:04:40.434Z,10.50
2023-04-15T00:09:42.602Z,10.50
2023-04-15T00:14:44.576Z,10.50
2023-04-15T00:19:46.321Z,10.50
2023-04-15T00:24:48.549Z,10.49
2023-04-15T00:29:50.721Z,10.49
2023-04-15T00:34:52.402Z,10.49
2023-04-15T00:39:54.021Z,10.49
2023-04-15T00:44:56.867Z,10.49
2023-04-15T00:49:58.842Z,10.49
2023-04-15T00:55:00.823Z,10.48
2023-04-15T01:00:05.367Z,10.47
2023-04-15T01:05:08.163Z,10.45
2023-04-15T01:10:10.462Z,10.44
2023-04-15T01:15:12.630Z,10.43
2023-04-15T01:20:15.844Z,10.41
2023-04-15T01:25:19.564Z,10.39
2023-04-15T01:30:21.435Z,10.38
2023-04-15T01:35:23.628Z,10.35
2023-04-15T01:40:25.399Z,10.35
2023-04-15T01:45:27.682Z,10.35
2023-04-15T01:50:29.457Z,10.34
2023-04-15T01:55:31.552Z,10.34
2023-04-15T02:00:33.411Z,10.32
2023-04-15T02:05:36.220Z,10.32
2023-04-15T02:10:38.507Z,10.32
2023-04-15T02:15:40.792Z,10.32
2023-04-15T02:20:46.773Z,10.31
2023-04-15T02:25:53.599Z,10.30
2023-04-15T02:30:57.285Z,10.30
2023-04-15T02:35:59.052Z,10.29
2023-04-15T02:41:01.229Z,10.30
2023-04-15T02:46:03.701Z,10.29
2023-04-15T02:51:16.699Z,10.30
2023-04-15T02:56:19.386Z,10.30
2023-04-15T03:01:21.665Z,10.31
2023-04-15T03:06:24.336Z,10.32
2023-04-15T03:11:29.079Z,10.33
2023-04-15T03:16:31.156Z,10.33
2023-04-15T03:21:32.933Z,10.34
2023-04-15T03:26:35.428Z,10.34
2023-04-15T03:31:37.236Z,10.34
2023-04-15T03:36:39.082Z,10.33
2023-04-15T03:41:40.853Z,10.33
2023-04-15T03:46:42.787Z,10.33
2023-04-15T03:51:45.651Z,10.35
2023-04-15T03:56:47.511Z,10.36
2023-04-15T04:01:49.345Z,10.36
2023-04-15T04:06:51.167Z,10.37
2023-04-15T04:11:52.938Z,10.37
2023-04-15T04:16:55.675Z,10.38
2023-04-15T04:21:57.716Z,10.39
2023-04-15T04:27:00.510Z,10.41
2023-04-15T04:32:02.433Z,10.43
2023-04-15T04:37:04.361Z,10.46
2023-04-15T04:42:06.033Z,10.51
2023-04-15T04:47:08.013Z,10.62
2023-04-15T04:52:10.301Z,10.73
2023-04-15T04:57:13.200Z,10.74
2023-04-15T05:02:15.158Z,10.72
2023-04-15T05:07:17.056Z,10.70
2023-04-15T05:12:19.040Z,10.69
2023-04-15T05:17:21.057Z,10.74
2023-04-15T05:22:22.892Z,10.82
2023-04-15T05:27:25.183Z,10.82
2023-04-15T05:32:27.085Z,10.80
2023-04-15T05:37:28.831Z,10.81
2023-04-15T05:42:31.014Z,10.81
2023-04-15T05:47:32.939Z,10.81
2023-04-15T05:52:35.078Z,10.82
2023-04-15T05:57:37.364Z,10.85
2023-04-15T06:02:39.295Z,10.83
2023-04-15T06:07:43.371Z,10.81
2023-04-15T06:12:45.557Z,10.83
2023-04-15T06:17:47.546Z,10.87
2023-04-15T06:22:49.822Z,10.89
2023-04-15T06:27:52.520Z,10.97
2023-04-15T06:32:55.443Z,11.07
2023-04-15T06:37:57.228Z,11.09
2023-04-15T06:42:59.069Z,11.07
2023-04-15T06:48:00.862Z,11.07
2023-04-15T06:53:03.080Z,11.08
2023-04-15T06:58:05.106Z,11.10
2023-04-15T07:03:09.785Z,11.16
2023-04-15T07:08:11.832Z,11.23
2023-04-15T07:13:13.706Z,11.28
2023-04-15T07:18:15.586Z,11.31
2023-04-15T07:23:17.973Z,11.29
2023-04-15T07:28:20.155Z,11.22
2023-04-15T07:33:22.039Z,11.19
2023-04-15T07:38:24.327Z,11.19
2023-04-15T07:43:26.718Z,11.21
2023-04-15T07:48:28.603Z,11.20
2023-04-15T07:53:30.977Z,11.17
2023-04-15T07:58:32.864Z,11.15
2023-04-15T08:03:35.098Z,11.16
2023-04-15T08:08:37.121Z,11.15
2023-04-15T08:13:38.892Z,11.17
2023-04-15T08:18:40.873Z,11.19
2023-04-15T08:23:43.569Z,11.20
2023-04-15T08:28:46.995Z,11.24
2023-04-15T08:33:48.752Z,11.29
2023-04-15T08:38:50.833Z,11.41
2023-04-15T08:43:57.632Z,11.51
2023-04-15T08:49:03.637Z,11.62
2023-04-15T08:54:06.828Z,11.64
2023-04-15T08:59:11.044Z,11.58
2023-04-15T09:04:14.180Z,11.48
2023-04-15T09:09:16.661Z,11.51
2023-04-15T09:14:18.436Z,11.57
2023-04-15T09:19:22.917Z,11.57
2023-04-15T09:24:34.052Z,11.55
2023-04-15T09:29:37.337Z,11.54
2023-04-15T09:34:39.561Z,11.58
2023-04-15T09:39:50.238Z,11.57
2023-04-15T09:44:52.674Z,11.49
2023-04-15T09:50:00.307Z,11.46
2023-04-15T09:55:03.738Z,11.43
2023-04-15T10:00:11.766Z,11.38
2023-04-15T10:05:15.176Z,11.33
2023-04-15T10:10:17.873Z,11.36
2023-04-15T10:15:22.121Z,11.41
2023-04-15T10:20:24.763Z,11.38
2023-04-15T10:25:29.381Z,11.30
2023-04-15T10:30:32.556Z,11.20
2023-04-15T10:35:35.710Z,11.19
2023-04-15T10:40:39.017Z,11.20
2023-04-15T10:45:44.599Z,11.26
2023-04-15T10:50:57.167Z,11.30
2023-04-15T10:55:59.543Z,11.28
2023-04-15T11:01:02.437Z,11.22
2023-04-15T11:06:06.070Z,11.14
2023-04-15T11:11:09.166Z,11.09
2023-04-15T11:16:12.334Z,11.08
2023-04-15T11:21:14.248Z,11.07
2023-04-15T11:26:16.362Z,11.04
2023-04-15T11:31:19.921Z,11.02
2023-04-15T11:36:29.721Z,11.02
2023-04-15T11:41:31.695Z,11.00
2023-04-15T11:46:33.467Z,11.04
2023-04-15T11:51:35.552Z,11.09
2023-04-15T11:56:37.845Z,11.11
2023-04-15T12:01:41.966Z,11.12
2023-04-15T12:06:45.377Z,11.10
2023-04-15T12:11:53.312Z,11.02
2023-04-15T12:16:59.615Z,10.95
2023-04-15T12:22:08.616Z,10.94
2023-04-15T12:27:15.810Z,10.90
2023-04-15T12:32:20.599Z,10.80
2023-04-15T12:37:22.661Z,10.70
2023-04-15T12:42:24.837Z,10.65
2023-04-15T12:47:30.072Z,10.65
2023-04-15T12:52:39.349Z,10.65
2023-04-15T12:57:41.327Z,10.64
2023-04-15T13:02:44.617Z,10.58
2023-04-15T13:07:46.709Z,10.54
2023-04-15T13:12:52.614Z,10.50
2023-04-15T13:17:54.394Z,10.50
2023-04-15T13:22:56.646Z,10.54
2023-04-15T13:28:01.152Z,10.58
2023-04-15T13:33:04.438Z,10.69
2023-04-15T13:38:06.788Z,10.87
2023-04-15T13:43:09.022Z,11.15
2023-04-15T13:48:11.057Z,11.42
2023-04-15T13:53:13.741Z,11.53
2023-04-15T13:58:16.135Z,11.53
2023-04-15T14:03:18.112Z,11.27
2023-04-15T14:08:20.190Z,10.97
2023-04-15T14:13:34.871Z,10.77
2023-04-15T14:18:40.334Z,10.61
2023-04-15T14:23:42.818Z,10.53
2023-04-15T14:28:44.992Z,10.48
2023-04-15T14:33:47.389Z,10.53
2023-04-15T14:38:49.266Z,10.64
2023-04-15T14:43:51.161Z,10.62
2023-04-15T14:48:53.329Z,10.48
2023-04-15T14:53:55.409Z,10.38
2023-04-15T14:58:57.291Z,10.30
2023-04-15T15:03:59.402Z,10.28
2023-04-15T15:09:01.850Z,10.31
2023-04-15T15:14:03.936Z,10.35
2023-04-15T15:19:06.183Z,10.33
2023-04-15T15:24:08.925Z,10.26
2023-04-15T15:29:11.006Z,10.19
2023-04-15T15:34:12.880Z,10.08
2023-04-15T15:39:16.515Z,9.98
2023-04-15T15:44:18.373Z,9.92
2023-04-15T15:49:20.464Z,9.86
2023-04-15T15:54:22.754Z,9.84
2023-04-15T15:59:25.336Z,9.78
2023-04-15T16:04:27.291Z,9.74
2023-04-15T16:09:29.502Z,9.69
2023-04-15T16:14:31.580Z,9.61
2023-04-15T16:19:33.456Z,9.54
2023-04-15T16:24:35.492Z,9.50
2023-04-15T16:29:37.823Z,9.45
2023-04-15T16:34:41.031Z,9.41
2023-04-15T16:39:42.920Z,9.39
2023-04-15T16:44:44.683Z,9.36
2023-04-15T16:49:46.458Z,9.31
2023-04-15T16:54:48.333Z,9.27
2023-04-15T16:59:50.619Z,9.22
2023-04-15T17:04:52.503Z,9.16
2023-04-15T17:09:54.885Z,9.06
2023-04-15T17:14:57.389Z,8.96
2023-04-15T17:19:59.660Z,8.86
2023-04-15T17:25:03.540Z,8.79
2023-04-15T17:30:09.033Z,8.73
2023-04-15T17:35:11.438Z,8.67
2023-04-15T17:40:14.437Z,8.61
2023-04-15T17:45:16.729Z,8.54
2023-04-15T17:50:19.227Z,8.48
2023-04-15T17:55:24.177Z,8.44
2023-04-15T18:00:26.459Z,8.38
2023-04-15T18:05:29.468Z,8.30
2023-04-15T18:10:33.424Z,8.22
2023-04-15T18:15:35.562Z,8.15
2023-04-15T18:20:37.446Z,8.07
2023-04-15T18:25:43.211Z,7.98
2023-04-15T18:30:47.137Z,7.89
2023-04-15T18:35:50.654Z,7.81
2023-04-15T18:40:53.037Z,7.75
2023-04-15T18:45:55.702Z,7.75
2023-04-15T18:50:58.438Z,7.82
2023-04-15T18:56:03.312Z,7.85
2023-04-15T19:01:06.294Z,7.81
2023-04-15T19:06:08.978Z,7.62
2023-04-15T19:11:11.274Z,7.49
2023-04-15T19:16:13.935Z,7.42
2023-04-15T19:21:16.866Z,7.38
2023-04-15T19:26:19.353Z,7.34
2023-04-15T19:31:21.147Z,7.32
2023-04-15T19:36:23.164Z,7.29
2023-04-15T19:41:25.399Z,7.28
2023-04-15T19:46:27.562Z,7.26
2023-04-15T19:51:29.983Z,7.25
2023-04-15T19:56:34.269Z,7.25
2023-04-15T20:01:36.709Z,7.24
2023-04-15T20:06:38.870Z,7.24
2023-04-15T20:12:45.885Z,7.22
2023-04-15T20:17:05.559Z,7.22
2023-04-15T20:22:09.181Z,7.22
2023-04-15T20:27:11.367Z,7.23
2023-04-15T20:32:13.454Z,7.24
2023-04-15T20:37:15.631Z,7.26
2023-04-15T20:42:19.039Z,7.28
2023-04-15T20:47:21.334Z,7.31
2023-04-15T20:52:24.036Z,7.32
2023-04-15T20:57:26.211Z,7.35
2023-04-15T21:02:28.564Z,7.37
2023-04-15T21:07:31.299Z,7.39
2023-04-15T21:12:33.892Z,7.40
2023-04-15T21:17:36.028Z,7.41
2023-04-15T21:22:37.857Z,7.41
2023-04-15T21:27:40.033Z,7.42
2023-04-15T21:32:41.850Z,7.42
2023-04-15T21:37:43.990Z,7.41
2023-04-15T21:42:47.200Z,7.40
2023-04-15T21:48:04.455Z,7.39
2023-04-15T21:53:10.722Z,7.37
2023-04-15T21:58:12.487Z,7.36
2023-04-15T22:03:16.243Z,7.34
2023-04-15T22:13:46.288Z,7.32
2023-04-15T22:18:48.052Z,7.31
2023-04-15T22:23:53.314Z,7.29
2023-04-15T22:29:15.362Z,7.28
2023-04-15T22:34:23.397Z,7.27
2023-04-15T22:39:25.259Z,7.26
2023-04-15T22:44:27.137Z,7.25
2023-04-15T22:49:29.009Z,7.24
2023-04-15T22:54:30.777Z,7.23
2023-04-15T22:59:32.617Z,7.22
2023-04-15T23:04:34.934Z,7.21
2023-04-15T23:09:38.980Z,7.20
2023-04-15T23:14:40.747Z,7.20
2023-04-15T23:19:42.577Z,7.18
2023-04-15T23:24:44.400Z,7.17
2023-04-15T23:29:46.271Z,7.15
2023-04-15T23:34:48.049Z,7.13
2023-04-15T23:39:49.824Z,7.11
2023-04-15T23:44:51.720Z,7.10
2023-04-15T23:49:53.316Z,7.08
2023-04-15T23:54:55.274Z,7.08
2023-04-15T23:59:56.923Z,7.08
